Abuja, Nigeria
Current Conditions -  °F | °C
As of 11:00 AM on Friday 19 Dec 2014 (Local Time) from DNKN Reporting Station
Clear Clear  
Wind Chill: 82°   Ceiling: Unl
Heat Index: 82°   Visibility: 6mi
Dew Point: 28°   Wind: 15mph
Humidity: 14%   Direction: 90°E
Pressure: 30.03"   Gusts: NA
Location:  9.18°N, 7.17°E
Report Text: DNKN 191000Z 09013KT CAVOK 28/M02 Q1017 NOSIG
Loading
Personal Weather Stations






























Interactive Weather Map New forecast layout! Learn more

10-Day Weather Forecast

Advertisements
Track Severe Weather on mobile